createdAt,value
2022-09-26T00:01:11.767Z,97812.91
2022-09-26T00:03:38.843Z,97810.25
2022-09-26T00:06:08.001Z,97810.41
2022-09-26T00:08:36.528Z,97810.41
2022-09-26T00:11:07.931Z,97813.03
2022-09-26T00:13:37.112Z,97806.06
2022-09-26T00:16:04.167Z,97802.03
2022-09-26T00:18:30.976Z,97800.91
2022-09-26T00:21:24.817Z,97796.44
2022-09-26T00:23:51.936Z,97797.44
2022-09-26T00:26:21.253Z,97789.50
2022-09-26T00:28:48.967Z,97788.78
2022-09-26T00:31:21.800Z,97783.50
2022-09-26T00:33:48.754Z,97780.84
2022-09-26T00:36:15.453Z,97788.94
2022-09-26T00:38:42.143Z,97789.75
2022-09-26T00:41:08.951Z,97793.25
2022-09-26T00:43:47.650Z,97788.94
2022-09-26T00:46:37.676Z,97788.09
2022-09-26T00:49:22.687Z,97786.41
2022-09-26T00:52:00.171Z,97782.94
2022-09-26T00:54:29.722Z,97783.91
2022-09-26T00:57:04.101Z,97783.09
2022-09-26T00:59:54.132Z,97782.22
2022-09-26T01:04:42.426Z,97777.78
2022-09-26T01:07:17.030Z,97772.06
2022-09-26T01:09:44.622Z,97779.88
2022-09-26T01:12:12.149Z,97774.44
2022-09-26T01:14:41.533Z,97758.38
2022-09-26T01:17:10.028Z,97768.00
2022-09-26T01:20:08.030Z,97772.75
2022-09-26T01:22:56.512Z,97770.09
2022-09-26T01:26:00.131Z,97780.03
2022-09-26T01:28:42.077Z,97773.88
2022-09-26T01:31:30.468Z,97771.38
2022-09-26T01:33:56.978Z,97767.84
2022-09-26T01:36:39.286Z,97757.28
2022-09-26T01:39:29.068Z,97762.56
2022-09-26T01:42:04.961Z,97750.31
2022-09-26T01:44:47.272Z,97742.38
2022-09-26T01:47:18.136Z,97741.53
2022-09-26T01:49:57.548Z,97733.59
2022-09-26T01:52:46.072Z,97731.78
2022-09-26T01:55:19.161Z,97732.75
2022-09-26T01:58:16.193Z,97727.47
2022-09-26T02:00:46.936Z,97721.31
2022-09-26T02:03:18.056Z,97719.78
2022-09-26T02:05:59.799Z,97720.50
2022-09-26T02:08:43.954Z,97714.22
2022-09-26T02:11:18.478Z,97721.31
2022-09-26T02:14:03.843Z,97718.66
2022-09-26T02:16:35.583Z,97718.66
2022-09-26T02:19:50.612Z,97718.81
2022-09-26T02:22:17.854Z,97713.53
2022-09-26T02:24:45.774Z,97715.34
2022-09-26T02:27:12.428Z,97714.63
2022-09-26T02:29:40.464Z,97724.25
2022-09-26T02:32:17.163Z,97723.41
2022-09-26T02:34:47.197Z,97727.88
2022-09-26T02:37:15.930Z,97721.59
2022-09-26T02:39:45.176Z,97719.94
2022-09-26T02:42:23.741Z,97717.28
2022-09-26T02:45:16.921Z,97720.91
2022-09-26T02:48:16.108Z,97720.09
2022-09-26T02:50:48.957Z,97710.31
2022-09-26T02:53:49.491Z,97711.28
2022-09-26T02:56:52.668Z,97700.69
2022-09-26T02:59:45.988Z,97704.47
2022-09-26T03:02:15.969Z,97697.78
2022-09-26T03:04:55.077Z,97690.25
2022-09-26T03:07:29.959Z,97695.53
2022-09-26T03:10:00.553Z,97684.13
2022-09-26T03:12:29.882Z,97680.63
2022-09-26T03:14:58.900Z,97667.81
2022-09-26T03:17:28.096Z,97662.09
2022-09-26T03:20:01.600Z,97664.75
2022-09-26T03:22:30.133Z,97658.63
2022-09-26T03:24:59.345Z,97663.06
2022-09-26T03:27:27.198Z,97661.28
2022-09-26T03:29:54.473Z,97653.34
2022-09-26T03:32:24.019Z,97653.47
2022-09-26T03:37:08.094Z,97645.53
2022-09-26T03:39:34.777Z,97642.03
2022-09-26T03:42:08.179Z,97643.00
2022-09-26T03:44:34.876Z,97643.88
2022-09-26T03:47:15.467Z,97641.34
2022-09-26T03:49:44.614Z,97643.00
2022-09-26T03:52:13.356Z,97649.28
2022-09-26T03:54:41.757Z,97644.84
2022-09-26T03:57:10.469Z,97638.69
2022-09-26T03:59:42.516Z,97642.19
2022-09-26T04:02:12.342Z,97639.53
2022-09-26T04:04:43.284Z,97636.03
2022-09-26T04:07:11.005Z,97643.97
2022-09-26T04:09:38.310Z,97641.34
2022-09-26T04:12:05.147Z,97645.81
2022-09-26T04:14:34.174Z,97641.34
2022-09-26T04:17:00.843Z,97639.69
2022-09-26T04:19:38.077Z,97637.88
2022-09-26T04:22:08.112Z,97637.03
2022-09-26T04:24:35.016Z,97637.88
2022-09-26T04:27:01.760Z,97638.00
2022-09-26T04:29:30.141Z,97637.03
2022-09-26T04:32:09.088Z,97633.53
2022-09-26T04:34:50.501Z,97636.19
2022-09-26T04:37:17.117Z,97634.41
2022-09-26T04:39:43.735Z,97635.38
2022-09-26T04:42:10.565Z,97634.50
2022-09-26T04:44:37.119Z,97632.72
2022-09-26T04:47:04.026Z,97616.84
2022-09-26T04:49:53.484Z,97616.84
2022-09-26T04:52:20.266Z,97618.63
2022-09-26T04:54:47.979Z,97622.13
2022-09-26T04:57:19.339Z,97622.13
2022-09-26T04:59:46.481Z,97621.44
2022-09-26T05:02:13.240Z,97617.81
2022-09-26T05:04:43.526Z,97615.16
2022-09-26T05:07:10.191Z,97615.97
2022-09-26T05:09:37.840Z,97611.53
2022-09-26T05:12:13.348Z,97613.34
2022-09-26T05:14:44.625Z,97615.16
2022-09-26T05:19:38.833Z,97615.97
2022-09-26T05:22:25.673Z,97615.16
2022-09-26T05:25:12.457Z,97612.50
2022-09-26T05:27:39.906Z,97612.50
2022-09-26T05:30:07.213Z,97605.53
2022-09-26T05:32:34.228Z,97602.75
2022-09-26T05:35:00.837Z,97602.75
2022-09-26T05:37:30.231Z,97600.94
2022-09-26T05:40:15.370Z,97607.06
2022-09-26T05:42:47.907Z,97607.06
2022-09-26T05:45:15.671Z,97604.28
2022-09-26T05:47:43.001Z,97598.16
2022-09-26T05:50:10.238Z,97597.19
2022-09-26T05:52:39.097Z,97602.47
2022-09-26T05:55:07.384Z,97599.84
2022-09-26T05:58:07.605Z,97607.78
2022-09-26T06:00:52.824Z,97602.47
2022-09-26T06:03:19.949Z,97605.13
2022-09-26T06:06:07.948Z,97608.47
2022-09-26T06:08:36.829Z,97612.91
2022-09-26T06:11:29.477Z,97601.50
2022-09-26T06:13:59.244Z,97607.63
2022-09-26T06:16:26.758Z,97604.97
2022-09-26T06:18:55.482Z,97604.97
2022-09-26T06:21:23.683Z,97594.38
2022-09-26T06:23:58.500Z,97594.38
2022-09-26T06:26:29.041Z,97600.38
2022-09-26T06:28:58.021Z,97594.25
2022-09-26T06:31:26.624Z,97590.75
2022-09-26T06:34:13.045Z,97595.25
2022-09-26T06:36:51.596Z,97595.09
2022-09-26T06:41:40.954Z,97596.88
2022-09-26T06:44:42.956Z,97586.75
2022-09-26T06:47:24.965Z,97592.59
2022-09-26T06:50:11.608Z,97595.25
2022-09-26T06:52:44.043Z,97591.59
2022-09-26T06:55:11.947Z,97590.75
2022-09-26T06:57:43.062Z,97596.06
2022-09-26T07:00:15.963Z,97589.94
2022-09-26T07:03:02.652Z,97593.25
2022-09-26T07:05:48.110Z,97589.78
2022-09-26T07:08:15.101Z,97586.28
2022-09-26T07:10:41.717Z,97577.38
2022-09-26T07:13:13.716Z,97588.81
2022-09-26T07:15:45.008Z,97576.56
2022-09-26T07:18:30.401Z,97585.06
2022-09-26T07:21:05.208Z,97579.75
2022-09-26T07:23:58.552Z,97584.09
2022-09-26T07:26:26.150Z,97575.84
2022-09-26T07:28:54.860Z,97575.00
2022-09-26T07:31:24.185Z,97569.41
2022-09-26T07:34:14.651Z,97579.75
2022-09-26T07:36:47.516Z,97568.44
2022-09-26T07:39:14.406Z,97562.59
2022-09-26T07:41:45.825Z,97576.13
2022-09-26T07:47:19.063Z,97582.50
2022-09-26T07:50:04.906Z,97584.34
2022-09-26T07:52:37.319Z,97585.31
2022-09-26T07:55:27.813Z,97581.69
2022-09-26T07:58:09.624Z,97581.84
2022-09-26T08:00:48.966Z,97582.66
2022-09-26T08:03:48.051Z,97579.03
2022-09-26T08:06:26.047Z,97588.81
2022-09-26T08:08:54.245Z,97583.34
2022-09-26T08:11:40.522Z,97580.72
2022-09-26T08:14:14.374Z,97574.16
2022-09-26T08:16:55.926Z,97579.28
2022-09-26T08:19:24.475Z,97581.13
2022-09-26T08:21:51.356Z,97585.28
2022-09-26T08:24:19.345Z,97576.50
2022-09-26T08:27:14.117Z,97580.13
2022-09-26T08:29:42.788Z,97581.66
2022-09-26T08:32:11.336Z,97582.47
2022-09-26T08:34:40.885Z,97591.13
2022-09-26T08:37:34.039Z,97583.34
2022-09-26T08:40:28.713Z,97589.47
2022-09-26T08:43:13.925Z,97593.78
2022-09-26T08:46:33.354Z,97589.19
2022-09-26T08:49:29.186Z,97582.06
2022-09-26T08:51:59.736Z,97570.25
2022-09-26T08:54:44.986Z,97589.03
2022-09-26T08:57:49.561Z,97587.91
2022-09-26T09:00:25.187Z,97591.53
2022-09-26T09:03:02.101Z,97581.63
2022-09-26T09:05:39.158Z,97580.50
2022-09-26T09:08:12.871Z,97585.56
2022-09-26T09:11:12.137Z,97583.59
2022-09-26T09:14:01.520Z,97581.63
2022-09-26T09:16:57.133Z,97586.63
2022-09-26T09:20:15.057Z,97586.63
2022-09-26T09:23:03.260Z,97586.63
2022-09-26T09:25:49.816Z,97586.63
2022-09-26T09:28:35.186Z,97585.53
2022-09-26T09:31:09.601Z,97588.84
2022-09-26T09:33:55.572Z,97587.88
2022-09-26T09:36:31.809Z,97579.22
2022-09-26T09:39:37.748Z,97583.13
2022-09-26T09:42:28.479Z,97589.94
2022-09-26T09:45:09.279Z,97589.78
2022-09-26T09:47:39.384Z,97593.13
2022-09-26T09:50:20.225Z,97577.66
2022-09-26T09:53:06.593Z,97587.41
2022-09-26T09:55:54.257Z,97577.34
2022-09-26T09:58:42.265Z,97590.03
2022-09-26T10:01:26.876Z,97587.75
2022-09-26T10:04:20.656Z,97589.28
2022-09-26T10:06:48.414Z,97585.50
2022-09-26T10:09:35.999Z,97585.34
2022-09-26T10:12:28.786Z,97583.38
2022-09-26T10:15:36.313Z,97577.94
2022-09-26T10:18:30.563Z,97588.25
2022-09-26T10:21:17.869Z,97576.66
2022-09-26T10:23:50.437Z,97578.31
2022-09-26T10:26:36.869Z,97572.88
2022-09-26T10:29:23.340Z,97571.91
2022-09-26T10:31:56.252Z,97561.31
2022-09-26T10:34:31.266Z,97562.81
2022-09-26T10:37:20.463Z,97555.00
2022-09-26T10:40:14.814Z,97559.84
2022-09-26T10:45:29.189Z,97553.56
2022-09-26T10:48:24.784Z,97564.88
2022-09-26T10:51:37.502Z,97551.63
2022-09-26T10:54:17.049Z,97541.84
2022-09-26T10:56:51.197Z,97535.00
2022-09-26T10:59:24.413Z,97542.56
2022-09-26T11:01:55.902Z,97546.03
2022-09-26T11:04:45.005Z,97535.44
2022-09-26T11:07:52.333Z,97537.91
2022-09-26T11:10:41.496Z,97533.47
2022-09-26T11:13:23.889Z,97530.81
2022-09-26T11:16:22.649Z,97534.28
2022-09-26T11:19:08.981Z,97496.44
2022-09-26T11:21:51.405Z,97522.69
2022-09-26T11:24:37.264Z,97530.50
2022-09-26T11:27:33.444Z,97523.41
2022-09-26T11:30:14.518Z,97510.13
2022-09-26T11:32:55.276Z,97507.31
2022-09-26T11:35:53.194Z,97509.97
2022-09-26T11:38:46.388Z,97495.72
2022-09-26T11:41:38.291Z,97501.84
2022-09-26T11:44:24.119Z,97503.53
2022-09-26T11:47:47.647Z,97498.91
2022-09-26T11:50:40.093Z,97498.91
2022-09-26T11:53:19.691Z,97499.63
2022-09-26T11:56:08.135Z,97498.59
2022-09-26T11:58:48.258Z,97494.97
2022-09-26T12:01:38.947Z,97496.63
2022-09-26T12:04:12.266Z,97498.31
2022-09-26T12:06:53.983Z,97486.72
2022-09-26T12:09:41.922Z,97489.22
2022-09-26T12:12:34.088Z,97490.88
2022-09-26T12:15:30.314Z,97488.06
2022-09-26T12:18:13.405Z,97488.75
2022-09-26T12:21:22.406Z,97487.91
2022-09-26T12:23:59.672Z,97495.75
2022-09-26T12:26:49.783Z,97494.72
2022-09-26T12:29:23.474Z,97487.78
2022-09-26T12:32:14.592Z,97492.94
2022-09-26T12:35:07.080Z,97484.97
2022-09-26T12:38:15.798Z,97487.63
2022-09-26T12:41:02.936Z,97485.78
2022-09-26T12:43:56.673Z,97486.66
2022-09-26T12:46:43.119Z,97479.50
2022-09-26T12:49:22.893Z,97474.19
2022-09-26T12:51:55.689Z,97477.53
2022-09-26T12:54:57.497Z,97476.69
2022-09-26T12:57:57.141Z,97475.72
2022-09-26T13:00:25.059Z,97475.72
2022-09-26T13:03:14.220Z,97488.00
2022-09-26T13:05:50.432Z,97483.66
2022-09-26T13:08:36.760Z,97482.84
2022-09-26T13:11:09.287Z,97487.16
2022-09-26T13:14:09.613Z,97487.31
2022-09-26T13:17:05.903Z,97487.31
2022-09-26T13:19:41.115Z,97482.00
2022-09-26T13:22:13.947Z,97484.66
2022-09-26T13:25:17.762Z,97482.00
2022-09-26T13:27:48.529Z,97475.88
2022-09-26T13:30:28.023Z,97474.03
2022-09-26T13:33:07.044Z,97471.38
2022-09-26T13:35:36.693Z,97470.56
2022-09-26T13:38:28.461Z,97466.06
2022-09-26T13:41:11.075Z,97465.25
2022-09-26T13:44:28.821Z,97459.13
2022-09-26T13:47:19.695Z,97462.59
2022-09-26T13:50:13.493Z,97455.63
2022-09-26T13:53:00.847Z,97453.94
2022-09-26T13:55:29.140Z,97445.00
2022-09-26T13:58:06.730Z,97441.53
2022-09-26T14:00:42.596Z,97436.22
2022-09-26T14:03:19.108Z,97430.75
2022-09-26T14:05:51.069Z,97434.25
2022-09-26T14:08:55.457Z,97433.09
2022-09-26T14:13:43.671Z,97433.94
2022-09-26T14:16:28.734Z,97427.66
2022-09-26T14:19:04.740Z,97422.34
2022-09-26T14:21:35.650Z,97414.16
2022-09-26T14:24:21.681Z,97427.50
2022-09-26T14:27:04.170Z,97426.69
2022-09-26T14:29:44.642Z,97427.50
2022-09-26T14:32:27.973Z,97409.53
2022-09-26T14:34:59.163Z,97416.06
2022-09-26T14:37:40.272Z,97422.88
2022-09-26T14:40:09.607Z,97416.72
2022-09-26T14:43:16.665Z,97411.25
2022-09-26T14:45:50.000Z,97414.91
2022-09-26T14:48:20.084Z,97411.25
2022-09-26T14:50:50.052Z,97421.88
2022-09-26T14:53:28.937Z,97426.19
2022-09-26T14:56:16.115Z,97420.88
2022-09-26T14:58:42.654Z,97424.38
2022-09-26T15:01:20.041Z,97416.56
2022-09-26T15:04:03.708Z,97418.38
2022-09-26T15:06:36.120Z,97421.03
2022-09-26T15:09:32.189Z,97420.75
2022-09-26T15:12:03.921Z,97417.06
2022-09-26T15:14:45.161Z,97415.13
2022-09-26T15:17:18.540Z,97420.25
2022-09-26T15:19:52.010Z,97407.84
2022-09-26T15:22:21.017Z,97406.63
2022-09-26T15:24:54.189Z,97412.97
2022-09-26T15:27:28.025Z,97417.47
2022-09-26T15:30:03.748Z,97414.81
2022-09-26T15:32:33.395Z,97411.47
2022-09-26T15:35:02.667Z,97401.16
2022-09-26T15:37:33.717Z,97416.94
2022-09-26T15:40:25.325Z,97406.34
2022-09-26T15:43:12.755Z,97407.31
2022-09-26T15:45:46.474Z,97415.56
2022-09-26T15:48:18.893Z,97412.09
2022-09-26T15:51:19.916Z,97420.75
2022-09-26T15:53:50.624Z,97415.13
2022-09-26T15:56:35.414Z,97415.13
2022-09-26T15:59:12.469Z,97406.16
2022-09-26T16:01:42.588Z,97408.66
2022-09-26T16:04:27.284Z,97412.97
2022-09-26T16:07:04.706Z,97400.53
2022-09-26T16:09:39.812Z,97403.34
2022-09-26T16:12:15.645Z,97405.34
2022-09-26T16:14:51.557Z,97401.69
2022-09-26T16:17:26.674Z,97395.72
2022-09-26T16:20:05.953Z,97393.38
2022-09-26T16:22:45.383Z,97405.94
2022-09-26T16:25:22.907Z,97397.31
2022-09-26T16:28:00.055Z,97403.78
2022-09-26T16:30:30.166Z,97401.25
2022-09-26T16:33:33.693Z,97404.94
2022-09-26T16:36:15.084Z,97396.97
2022-09-26T16:38:41.763Z,97402.28
2022-09-26T16:42:03.783Z,97400.44
2022-09-26T16:44:36.276Z,97403.91
2022-09-26T16:47:06.661Z,97407.41
2022-09-26T16:49:46.746Z,97395.81
2022-09-26T16:52:26.980Z,97400.28
2022-09-26T16:54:59.673Z,97397.63
2022-09-26T16:57:30.429Z,97392.28
2022-09-26T17:00:41.760Z,97399.44
2022-09-26T17:03:24.169Z,97398.59
2022-09-26T17:05:52.566Z,97398.75
2022-09-26T17:08:19.544Z,97401.41
2022-09-26T17:10:46.248Z,97403.78
2022-09-26T17:13:22.705Z,97400.28
2022-09-26T17:15:52.998Z,97405.56
2022-09-26T17:18:23.066Z,97400.28
2022-09-26T17:20:50.169Z,97396.13
2022-09-26T17:23:38.889Z,97397.50
2022-09-26T17:26:06.782Z,97397.50
2022-09-26T17:28:43.197Z,97380.53
2022-09-26T17:31:19.501Z,97398.31
2022-09-26T17:33:49.924Z,97390.34
2022-09-26T17:36:24.953Z,97399.13
2022-09-26T17:38:52.121Z,97400.78
2022-09-26T17:41:18.893Z,97396.34
2022-09-26T17:43:45.565Z,97397.97
2022-09-26T17:46:15.841Z,97400.63
2022-09-26T17:48:44.437Z,97395.31
2022-09-26T17:51:14.662Z,97403.16
2022-09-26T17:53:50.410Z,97408.47
2022-09-26T17:56:21.089Z,97403.16
2022-09-26T17:58:49.410Z,97410.25
2022-09-26T18:01:32.532Z,97403.16
2022-09-26T18:04:02.423Z,97402.31
2022-09-26T18:06:33.396Z,97390.03
2022-09-26T18:09:07.889Z,97396.19
2022-09-26T18:11:36.247Z,97392.66
2022-09-26T18:14:08.357Z,97395.31
2022-09-26T18:16:35.211Z,97390.03
2022-09-26T18:19:06.252Z,97390.03
2022-09-26T18:21:33.932Z,97389.19
2022-09-26T18:24:02.674Z,97391.03
2022-09-26T18:26:33.368Z,97397.16
2022-09-26T18:29:08.251Z,97391.03
2022-09-26T18:31:41.518Z,97392.84
2022-09-26T18:34:20.600Z,97393.81
2022-09-26T18:36:52.795Z,97392.03
2022-09-26T18:39:19.509Z,97399.81
2022-09-26T18:41:48.509Z,97403.28
2022-09-26T18:44:19.867Z,97407.78
2022-09-26T18:46:48.137Z,97402.78
2022-09-26T18:51:45.740Z,97412.09
2022-09-26T18:54:14.881Z,97410.13
2022-09-26T18:57:00.488Z,97410.94
2022-09-26T18:59:31.005Z,97409.13
2022-09-26T19:02:01.269Z,97411.78
2022-09-26T19:04:30.692Z,97411.63
2022-09-26T19:07:04.805Z,97406.16
2022-09-26T19:09:33.857Z,97407.00
2022-09-26T19:12:01.435Z,97412.28
2022-09-26T19:14:30.205Z,97412.28
2022-09-26T19:16:58.020Z,97405.34
2022-09-26T19:19:25.783Z,97408.13
2022-09-26T19:21:56.920Z,97411.94
2022-09-26T19:24:23.634Z,97404.97
2022-09-26T19:27:04.749Z,97409.44
2022-09-26T19:29:43.592Z,97409.59
2022-09-26T19:32:23.495Z,97409.59
2022-09-26T19:34:56.664Z,97406.25
2022-09-26T19:37:23.431Z,97406.25
2022-09-26T19:39:52.708Z,97396.63
2022-09-26T19:42:20.677Z,97399.28
2022-09-26T19:44:47.601Z,97395.94
2022-09-26T19:47:16.967Z,97396.81
2022-09-26T19:49:47.568Z,97388.63
2022-09-26T19:52:23.255Z,97396.97
2022-09-26T19:54:51.846Z,97394.44
2022-09-26T19:57:20.601Z,97398.13
2022-09-26T19:59:48.450Z,97396.44
2022-09-26T20:02:18.147Z,97410.53
2022-09-26T20:04:44.950Z,97412.34
2022-09-26T20:07:14.222Z,97412.50
2022-09-26T20:09:41.762Z,97412.50
2022-09-26T20:12:09.262Z,97406.38
2022-09-26T20:14:36.062Z,97409.00
2022-09-26T20:17:13.022Z,97404.53
2022-09-26T20:21:53.098Z,97406.38
2022-09-26T20:24:20.001Z,97410.69
2022-09-26T20:26:48.124Z,97414.31
2022-09-26T20:29:16.214Z,97404.31
2022-09-26T20:31:43.620Z,97415.13
2022-09-26T20:34:14.198Z,97410.69
2022-09-26T20:36:44.511Z,97412.34
2022-09-26T20:39:16.673Z,97406.19
2022-09-26T20:41:44.277Z,97408.03
2022-09-26T20:44:17.833Z,97407.88
2022-09-26T20:46:50.702Z,97413.19
2022-09-26T20:49:25.467Z,97411.38
2022-09-26T20:51:53.506Z,97414.03
2022-09-26T20:54:32.831Z,97416.16
2022-09-26T20:57:01.477Z,97420.97
2022-09-26T20:59:29.147Z,97419.34
2022-09-26T21:01:57.742Z,97413.19
2022-09-26T21:04:32.529Z,97422.00
2022-09-26T21:06:59.509Z,97419.16
2022-09-26T21:09:26.123Z,97420.16
2022-09-26T21:11:52.884Z,97412.19
2022-09-26T21:14:19.405Z,97411.38
2022-09-26T21:16:50.258Z,97401.75
2022-09-26T21:19:22.584Z,97403.41
2022-09-26T21:21:56.572Z,97402.41
2022-09-26T21:24:50.328Z,97386.44
2022-09-26T21:27:17.022Z,97400.75
2022-09-26T21:29:43.665Z,97393.78
2022-09-26T21:32:17.393Z,97391.13
2022-09-26T21:34:54.339Z,97398.13
2022-09-26T21:37:21.075Z,97397.25
2022-09-26T21:39:47.978Z,97398.13
2022-09-26T21:42:14.784Z,97398.13
2022-09-26T21:44:46.047Z,97394.59
2022-09-26T21:47:12.800Z,97353.66
2022-09-26T21:49:39.476Z,97391.13
2022-09-26T21:52:10.718Z,97375.22
2022-09-26T21:54:42.604Z,97381.34
2022-09-26T21:57:30.371Z,97376.19
2022-09-26T21:59:58.445Z,97370.91
2022-09-26T22:02:25.772Z,97373.53
2022-09-26T22:04:52.831Z,97375.34
2022-09-26T22:07:19.432Z,97372.69
2022-09-26T22:09:46.240Z,97370.03
2022-09-26T22:12:12.884Z,97356.41
2022-09-26T22:14:39.493Z,97361.25
2022-09-26T22:17:06.146Z,97363.09
2022-09-26T22:19:33.641Z,97356.13
2022-09-26T22:22:01.734Z,97355.13
2022-09-26T22:24:28.452Z,97342.84
2022-09-26T22:26:55.012Z,97341.88
2022-09-26T22:29:21.653Z,97340.22
2022-09-26T22:31:48.257Z,97330.56
2022-09-26T22:34:15.133Z,97325.28
2022-09-26T22:36:41.724Z,97327.94
2022-09-26T22:39:08.385Z,97324.41
2022-09-26T22:41:34.990Z,97319.97
2022-09-26T22:44:02.013Z,97318.97
2022-09-26T22:46:29.048Z,97318.97
2022-09-26T22:48:56.479Z,97316.47
2022-09-26T22:51:23.137Z,97313.00
2022-09-26T22:53:50.028Z,97313.81
2022-09-26T22:56:18.594Z,97302.38
2022-09-26T22:58:54.696Z,97302.38
2022-09-26T23:01:28.463Z,97305.84
2022-09-26T23:03:56.847Z,97307.69
2022-09-26T23:06:24.149Z,97305.03
2022-09-26T23:08:51.582Z,97304.22
2022-09-26T23:11:18.794Z,97305.03
2022-09-26T23:13:46.603Z,97305.19
2022-09-26T23:16:17.112Z,97306.88
2022-09-26T23:18:44.759Z,97304.34
2022-09-26T23:21:13.588Z,97303.38
2022-09-26T23:23:43.129Z,97308.84
2022-09-26T23:26:31.717Z,97295.41
2022-09-26T23:28:59.454Z,97296.38
2022-09-26T23:31:27.562Z,97296.38
2022-09-26T23:33:55.065Z,97294.75
2022-09-26T23:36:22.119Z,97294.59
2022-09-26T23:38:49.485Z,97292.91
2022-09-26T23:41:16.100Z,97294.75
2022-09-26T23:43:46.401Z,97291.25
2022-09-26T23:46:13.169Z,97299.22
2022-09-26T23:48:39.958Z,97290.44
2022-09-26T23:51:06.778Z,97297.53
2022-09-26T23:53:33.448Z,97259.63
2022-09-26T23:56:13.716Z,97287.78
2022-09-26T23:58:40.867Z,97282.47
